createdAt,value
2023-01-26T00:00:25.608Z,74.67
2023-01-26T00:02:54.817Z,74.76
2023-01-26T00:05:23.661Z,74.39
2023-01-26T00:07:52.604Z,74.55
2023-01-26T00:10:21.531Z,74.62
2023-01-26T00:12:50.489Z,74.75
2023-01-26T00:15:19.263Z,74.85
2023-01-26T00:17:48.163Z,74.65
2023-01-26T00:20:17.235Z,74.61
2023-01-26T00:22:46.113Z,74.53
2023-01-26T00:25:14.970Z,74.64
2023-01-26T00:27:43.818Z,74.67
2023-01-26T00:30:14.351Z,74.67
2023-01-26T00:32:43.251Z,74.62
2023-01-26T00:35:12.099Z,74.86
2023-01-26T00:37:43.958Z,74.75
2023-01-26T00:40:17.388Z,74.84
2023-01-26T00:42:46.304Z,74.92
2023-01-26T00:45:15.218Z,74.62
2023-01-26T00:47:45.821Z,74.75
2023-01-26T00:50:15.089Z,74.69
2023-01-26T00:52:44.133Z,75.09
2023-01-26T00:55:13.139Z,75.13
2023-01-26T00:57:42.727Z,75.28
2023-01-26T01:00:17.551Z,75.14
2023-01-26T01:02:46.897Z,75.43
2023-01-26T01:05:15.837Z,75.50
2023-01-26T01:07:44.691Z,75.09
2023-01-26T01:10:13.864Z,75.19
2023-01-26T01:12:44.719Z,75.41
2023-01-26T01:15:14.277Z,75.16
2023-01-26T01:17:43.435Z,75.12
2023-01-26T01:20:12.948Z,75.39
2023-01-26T01:22:43.409Z,75.17
2023-01-26T01:25:12.835Z,75.04
2023-01-26T01:27:41.850Z,75.38
2023-01-26T01:30:11.759Z,75.04
2023-01-26T01:32:40.805Z,75.46
2023-01-26T01:35:10.585Z,75.24
2023-01-26T01:37:39.450Z,75.54
2023-01-26T01:40:13.525Z,75.36
2023-01-26T01:42:48.777Z,75.41
2023-01-26T01:45:41.921Z,75.57
2023-01-26T01:48:29.968Z,75.62
2023-01-26T01:51:03.729Z,75.57
2023-01-26T01:53:38.255Z,75.65
2023-01-26T01:56:13.597Z,75.63
2023-01-26T01:58:44.914Z,75.38
2023-01-26T02:01:14.930Z,75.37
2023-01-26T02:03:47.468Z,75.09
2023-01-26T02:07:02.725Z,75.57
2023-01-26T02:09:55.664Z,75.79
2023-01-26T02:12:30.413Z,75.38
2023-01-26T02:14:59.596Z,75.04
2023-01-26T02:17:28.621Z,75.71
2023-01-26T02:20:16.090Z,75.74
2023-01-26T02:23:06.225Z,75.62
2023-01-26T02:25:46.259Z,75.76
2023-01-26T02:28:15.131Z,76.39
2023-01-26T02:30:44.857Z,76.63
2023-01-26T02:33:21.657Z,76.21
2023-01-26T02:35:54.153Z,76.87
2023-01-26T02:38:26.529Z,76.83
2023-01-26T02:41:02.337Z,76.09
2023-01-26T02:43:31.381Z,76.40
2023-01-26T02:46:00.901Z,76.78
2023-01-26T02:48:48.362Z,76.33
2023-01-26T02:51:17.276Z,76.13
2023-01-26T02:53:48.385Z,76.04
2023-01-26T02:56:17.243Z,75.68
2023-01-26T02:58:46.141Z,75.47
2023-01-26T03:01:16.066Z,75.06
2023-01-26T03:03:48.785Z,75.17
2023-01-26T03:06:17.906Z,75.66
2023-01-26T03:08:46.764Z,76.20
2023-01-26T03:11:16.272Z,76.01
2023-01-26T03:13:45.326Z,75.50
2023-01-26T03:16:18.956Z,76.36
2023-01-26T03:19:06.158Z,76.54
2023-01-26T03:21:53.516Z,76.08
2023-01-26T03:24:40.903Z,76.32
2023-01-26T03:27:29.218Z,76.29
2023-01-26T03:30:04.101Z,76.11
2023-01-26T03:32:33.497Z,76.31
2023-01-26T03:35:04.209Z,76.32
2023-01-26T03:37:37.559Z,76.43
2023-01-26T03:40:32.224Z,76.63
2023-01-26T03:43:29.264Z,76.73
2023-01-26T03:46:16.550Z,77.13
2023-01-26T03:49:03.883Z,77.29
2023-01-26T03:51:51.402Z,77.35
2023-01-26T03:54:38.754Z,77.87
2023-01-26T03:57:07.821Z,77.62
2023-01-26T03:59:40.081Z,77.72
2023-01-26T04:02:32.689Z,77.12
2023-01-26T04:05:21.737Z,77.22
2023-01-26T04:08:13.998Z,77.70
2023-01-26T04:10:42.954Z,78.37
2023-01-26T04:13:30.302Z,78.17
2023-01-26T04:16:23.629Z,77.97
2023-01-26T04:19:11.324Z,77.89
2023-01-26T04:21:40.315Z,77.84
2023-01-26T04:24:17.437Z,78.18
2023-01-26T04:26:48.050Z,78.48
2023-01-26T04:29:24.652Z,78.50
2023-01-26T04:31:53.616Z,78.33
2023-01-26T04:34:24.279Z,78.54
2023-01-26T04:36:53.392Z,78.48
2023-01-26T04:39:26.207Z,79.00
2023-01-26T04:41:58.389Z,79.15
2023-01-26T04:44:27.312Z,78.98
2023-01-26T04:46:56.189Z,79.05
2023-01-26T04:49:25.034Z,78.79
2023-01-26T04:51:54.321Z,78.80
2023-01-26T04:54:24.351Z,78.95
2023-01-26T04:56:54.248Z,78.86
2023-01-26T04:59:23.117Z,79.16
2023-01-26T05:01:57.272Z,79.36
2023-01-26T05:04:26.523Z,79.28
2023-01-26T05:06:55.930Z,79.79
2023-01-26T05:09:27.326Z,79.43
2023-01-26T05:12:32.633Z,79.25
2023-01-26T05:15:24.408Z,79.91
2023-01-26T05:18:04.971Z,79.64
2023-01-26T05:20:40.819Z,79.51
2023-01-26T05:23:35.517Z,79.53
2023-01-26T05:26:05.204Z,79.19
2023-01-26T05:28:44.740Z,79.26
2023-01-26T05:31:14.373Z,79.49
2023-01-26T05:33:43.257Z,79.22
2023-01-26T05:36:15.244Z,79.87
2023-01-26T05:38:44.151Z,80.36
2023-01-26T05:41:13.812Z,79.72
2023-01-26T05:43:56.538Z,79.69
2023-01-26T05:46:36.951Z,79.48
2023-01-26T05:49:05.807Z,79.02
2023-01-26T05:51:35.305Z,79.57
2023-01-26T05:54:06.486Z,79.07
2023-01-26T05:56:35.888Z,80.03
2023-01-26T05:59:07.227Z,80.09
2023-01-26T06:01:36.919Z,79.92
2023-01-26T06:04:09.699Z,80.04
2023-01-26T06:06:45.562Z,80.04
2023-01-26T06:09:32.977Z,79.58
2023-01-26T06:12:18.808Z,79.55
2023-01-26T06:15:13.873Z,80.00
2023-01-26T06:17:46.195Z,79.74
2023-01-26T06:20:16.880Z,80.26
2023-01-26T06:22:54.716Z,80.29
2023-01-26T06:25:23.588Z,80.12
2023-01-26T06:27:52.755Z,80.36
2023-01-26T06:30:27.943Z,79.85
2023-01-26T06:33:02.439Z,80.18
2023-01-26T06:35:36.704Z,80.50
2023-01-26T06:38:08.077Z,80.34
2023-01-26T06:40:36.913Z,80.88
2023-01-26T06:43:07.447Z,80.25
2023-01-26T06:45:36.588Z,80.40
2023-01-26T06:48:05.662Z,80.78
2023-01-26T06:50:36.786Z,80.21
2023-01-26T06:53:34.757Z,80.27
2023-01-26T06:56:32.971Z,80.41
2023-01-26T06:59:21.623Z,80.60
2023-01-26T07:02:29.331Z,80.37
2023-01-26T07:04:58.791Z,79.95
2023-01-26T07:07:27.665Z,80.36
2023-01-26T07:09:56.537Z,80.39
2023-01-26T07:12:25.810Z,80.73
2023-01-26T07:14:54.608Z,81.09
2023-01-26T07:17:23.479Z,80.58
2023-01-26T07:19:52.447Z,80.77
2023-01-26T07:22:21.393Z,80.98
2023-01-26T07:24:50.583Z,80.79
2023-01-26T07:27:19.542Z,80.61
2023-01-26T07:29:48.445Z,80.39
2023-01-26T07:32:17.441Z,80.48
2023-01-26T07:34:46.646Z,80.45
2023-01-26T07:37:15.950Z,80.88
2023-01-26T07:39:44.914Z,80.71
2023-01-26T07:42:13.935Z,80.60
2023-01-26T07:44:48.716Z,80.50
2023-01-26T07:47:17.684Z,80.57
2023-01-26T07:49:47.627Z,80.72
2023-01-26T07:52:16.776Z,80.96
2023-01-26T07:54:45.771Z,80.88
2023-01-26T07:57:14.692Z,80.28
2023-01-26T07:59:43.633Z,79.86
2023-01-26T08:02:13.418Z,79.37
2023-01-26T08:04:42.599Z,79.63
2023-01-26T08:07:11.623Z,79.67
2023-01-26T08:09:40.734Z,79.68
2023-01-26T08:12:09.661Z,79.63
2023-01-26T08:14:46.784Z,79.91
2023-01-26T08:17:17.949Z,79.95
2023-01-26T08:19:47.587Z,79.93
2023-01-26T08:22:16.623Z,79.79
2023-01-26T08:24:45.581Z,79.80
2023-01-26T08:27:15.350Z,79.91
2023-01-26T08:29:44.304Z,79.90
2023-01-26T08:32:13.143Z,80.47
2023-01-26T08:34:41.912Z,79.95
2023-01-26T08:37:10.862Z,79.90
2023-01-26T08:39:39.774Z,80.15
2023-01-26T08:42:08.735Z,80.29
2023-01-26T08:44:37.676Z,80.21
2023-01-26T08:47:06.814Z,80.20
2023-01-26T08:49:37.018Z,79.82
2023-01-26T08:52:06.040Z,80.21
2023-01-26T08:54:35.129Z,80.16
2023-01-26T08:57:04.280Z,79.98
2023-01-26T08:59:33.542Z,79.74
2023-01-26T09:02:03.620Z,80.06
2023-01-26T09:04:32.897Z,79.85
2023-01-26T09:07:02.031Z,80.08
2023-01-26T09:09:31.364Z,79.46
2023-01-26T09:12:05.836Z,79.74
2023-01-26T09:14:34.686Z,79.77
2023-01-26T09:17:03.582Z,79.80
2023-01-26T09:19:32.791Z,80.05
2023-01-26T09:22:01.760Z,79.54
2023-01-26T09:24:30.795Z,80.22
2023-01-26T09:26:59.730Z,80.02
2023-01-26T09:29:28.672Z,80.10
2023-01-26T09:31:57.815Z,79.84
2023-01-26T09:34:27.691Z,79.74
2023-01-26T09:36:56.893Z,79.89
2023-01-26T09:39:26.469Z,80.08
2023-01-26T09:42:25.200Z,79.91
2023-01-26T09:45:18.110Z,79.88
2023-01-26T09:48:08.365Z,80.03
2023-01-26T09:50:56.490Z,79.84
2023-01-26T09:53:43.930Z,79.66
2023-01-26T09:56:19.097Z,79.68
2023-01-26T09:59:00.933Z,79.83
2023-01-26T10:01:44.965Z,79.90
2023-01-26T10:04:26.069Z,79.77
2023-01-26T10:06:57.572Z,79.93
2023-01-26T10:09:52.347Z,79.59
2023-01-26T10:12:26.377Z,79.99
2023-01-26T10:15:22.488Z,80.15
2023-01-26T10:17:53.567Z,80.24
2023-01-26T10:20:32.064Z,79.79
2023-01-26T10:23:17.423Z,80.33
2023-01-26T10:25:49.785Z,80.47
2023-01-26T10:28:26.377Z,80.01
2023-01-26T10:30:55.358Z,80.50
2023-01-26T10:33:38.102Z,80.09
2023-01-26T10:36:08.737Z,80.46
2023-01-26T10:38:37.642Z,79.78
2023-01-26T10:41:18.853Z,80.15
2023-01-26T10:44:12.445Z,80.68
2023-01-26T10:46:43.594Z,80.07
2023-01-26T10:49:12.445Z,79.99
2023-01-26T10:51:45.792Z,80.83
2023-01-26T10:54:28.127Z,80.52
2023-01-26T10:57:22.542Z,80.08
2023-01-26T11:00:11.380Z,80.79
2023-01-26T11:02:51.973Z,80.64
2023-01-26T11:05:30.110Z,80.79
2023-01-26T11:08:04.007Z,80.49
2023-01-26T11:10:38.420Z,80.41
2023-01-26T11:13:20.774Z,80.67
2023-01-26T11:16:01.500Z,80.59
2023-01-26T11:18:55.546Z,80.79
2023-01-26T11:21:41.135Z,81.00
2023-01-26T11:24:34.406Z,80.64
2023-01-26T11:27:33.754Z,80.53
2023-01-26T11:30:10.474Z,80.92
2023-01-26T11:32:51.217Z,80.43
2023-01-26T11:35:30.843Z,80.86
2023-01-26T11:38:10.259Z,80.48
2023-01-26T11:40:49.453Z,80.50
2023-01-26T11:43:47.428Z,81.11
2023-01-26T11:46:43.873Z,80.58
2023-01-26T11:49:50.044Z,80.85
2023-01-26T11:52:47.712Z,80.62
2023-01-26T11:55:44.381Z,80.99
2023-01-26T11:58:19.129Z,81.05
2023-01-26T12:00:58.494Z,80.80
2023-01-26T12:03:50.878Z,81.25
2023-01-26T12:06:27.441Z,81.14
2023-01-26T12:09:04.315Z,81.34
2023-01-26T12:11:39.948Z,81.03
2023-01-26T12:14:36.292Z,81.29
2023-01-26T12:17:18.105Z,81.22
2023-01-26T12:20:40.788Z,80.99
2023-01-26T12:23:09.708Z,80.95
2023-01-26T12:25:42.214Z,80.99
2023-01-26T12:28:38.458Z,81.15
2023-01-26T12:31:10.653Z,80.92
2023-01-26T12:33:40.059Z,81.17
2023-01-26T12:36:42.897Z,81.01
2023-01-26T12:39:37.864Z,81.04
2023-01-26T12:42:17.308Z,81.03
2023-01-26T12:45:03.003Z,81.13
2023-01-26T12:48:03.705Z,81.29
2023-01-26T12:50:43.563Z,81.18
2023-01-26T12:53:23.699Z,81.28
2023-01-26T12:56:24.909Z,81.43
2023-01-26T12:58:56.164Z,81.03
2023-01-26T13:01:31.166Z,81.26
2023-01-26T13:04:07.414Z,81.29
2023-01-26T13:06:36.478Z,81.13
2023-01-26T13:09:23.911Z,81.53
2023-01-26T13:11:59.613Z,81.40
2023-01-26T13:14:46.717Z,81.25
2023-01-26T13:17:19.583Z,81.23
2023-01-26T13:19:48.487Z,81.09
2023-01-26T13:22:21.035Z,81.65
2023-01-26T13:24:50.812Z,81.58
2023-01-26T13:27:30.219Z,81.32
2023-01-26T13:29:59.661Z,81.63
2023-01-26T13:32:28.567Z,81.69
2023-01-26T13:35:01.070Z,81.30
2023-01-26T13:37:51.150Z,81.72
2023-01-26T13:40:36.261Z,81.23
2023-01-26T13:43:28.192Z,81.15
2023-01-26T13:46:03.929Z,81.59
2023-01-26T13:48:45.519Z,81.37
2023-01-26T13:51:21.305Z,81.74
2023-01-26T13:54:00.302Z,81.52
2023-01-26T13:56:38.133Z,81.67
2023-01-26T13:59:21.348Z,81.50
2023-01-26T14:01:57.118Z,81.68
2023-01-26T14:04:28.956Z,81.28
2023-01-26T14:07:03.185Z,81.18
2023-01-26T14:09:35.954Z,81.68
2023-01-26T14:12:06.968Z,81.37
2023-01-26T14:14:38.390Z,81.69
2023-01-26T14:17:23.389Z,81.42
2023-01-26T14:19:52.436Z,81.56
2023-01-26T14:22:22.349Z,81.92
2023-01-26T14:24:53.814Z,81.67
2023-01-26T14:27:39.044Z,81.69
2023-01-26T14:30:28.166Z,81.34
2023-01-26T14:33:14.970Z,81.72
2023-01-26T14:35:58.026Z,81.46
2023-01-26T14:38:29.546Z,81.65
2023-01-26T14:41:01.905Z,81.78
2023-01-26T14:43:31.026Z,82.09
2023-01-26T14:46:02.099Z,82.13
2023-01-26T14:48:35.610Z,81.94
2023-01-26T14:51:07.490Z,82.03
2023-01-26T14:53:36.502Z,81.86
2023-01-26T14:56:05.879Z,81.66
2023-01-26T14:58:35.163Z,81.92
2023-01-26T15:01:05.655Z,81.97
2023-01-26T15:03:38.375Z,82.10
2023-01-26T15:06:22.731Z,82.44
2023-01-26T15:09:07.212Z,81.95
2023-01-26T15:11:59.137Z,82.09
2023-01-26T15:14:30.964Z,81.88
2023-01-26T15:17:00.190Z,82.00
2023-01-26T15:19:38.923Z,81.90
2023-01-26T15:22:22.965Z,82.18
2023-01-26T15:25:06.669Z,82.29
2023-01-26T15:27:37.476Z,82.05
2023-01-26T15:30:08.560Z,82.48
2023-01-26T15:32:41.068Z,82.03
2023-01-26T15:35:36.401Z,82.47
2023-01-26T15:38:13.426Z,82.31
2023-01-26T15:40:42.416Z,82.23
2023-01-26T15:43:11.189Z,82.33
2023-01-26T15:45:44.141Z,82.50
2023-01-26T15:48:12.959Z,82.49
2023-01-26T15:50:41.802Z,82.22
2023-01-26T15:53:14.951Z,82.12
2023-01-26T15:55:44.927Z,82.29
2023-01-26T15:58:13.827Z,82.59
2023-01-26T16:00:43.881Z,82.48
2023-01-26T16:03:19.222Z,82.62
2023-01-26T16:05:49.280Z,82.39
2023-01-26T16:08:19.842Z,82.06
2023-01-26T16:10:49.194Z,82.59
2023-01-26T16:13:20.399Z,82.26
2023-01-26T16:15:51.133Z,82.25
2023-01-26T16:18:21.268Z,82.40
2023-01-26T16:20:51.043Z,82.64
2023-01-26T16:23:23.625Z,82.39
2023-01-26T16:25:53.298Z,82.29
2023-01-26T16:28:22.905Z,82.26
2023-01-26T16:30:51.951Z,82.13
2023-01-26T16:33:25.186Z,82.34
2023-01-26T16:35:55.263Z,82.49
2023-01-26T16:38:24.189Z,82.52
2023-01-26T16:40:54.871Z,82.46
2023-01-26T16:43:28.047Z,82.47
2023-01-26T16:45:57.190Z,82.66
2023-01-26T16:48:26.496Z,82.56
2023-01-26T16:50:55.441Z,82.20
2023-01-26T16:53:28.886Z,82.71
2023-01-26T16:55:57.865Z,82.61
2023-01-26T16:58:27.147Z,82.38
2023-01-26T17:00:56.885Z,82.20
2023-01-26T17:03:26.633Z,82.36
2023-01-26T17:05:57.091Z,82.30
2023-01-26T17:08:26.037Z,82.11
2023-01-26T17:11:02.533Z,82.56
2023-01-26T17:13:34.993Z,82.37
2023-01-26T17:16:04.073Z,82.47
2023-01-26T17:18:35.251Z,82.27
2023-01-26T17:21:09.783Z,82.44
2023-01-26T17:23:42.117Z,82.33
2023-01-26T17:26:26.199Z,82.36
2023-01-26T17:28:56.629Z,82.46
2023-01-26T17:31:26.483Z,82.20
2023-01-26T17:33:55.837Z,82.47
2023-01-26T17:36:24.839Z,82.59
2023-01-26T17:38:54.032Z,82.21
2023-01-26T17:41:22.919Z,82.41
2023-01-26T17:43:51.931Z,82.25
2023-01-26T17:46:22.202Z,82.64
2023-01-26T17:48:51.590Z,82.81
2023-01-26T17:51:23.774Z,82.16
2023-01-26T17:53:52.983Z,82.53
2023-01-26T17:56:23.033Z,82.51
2023-01-26T17:58:56.115Z,82.29
2023-01-26T18:01:27.560Z,82.62
2023-01-26T18:03:56.622Z,82.33
2023-01-26T18:06:25.767Z,82.35
2023-01-26T18:08:55.068Z,82.57
2023-01-26T18:11:24.063Z,82.50
2023-01-26T18:13:56.206Z,82.62
2023-01-26T18:16:25.244Z,82.65
2023-01-26T18:18:59.037Z,82.58
2023-01-26T18:21:30.134Z,82.53
2023-01-26T18:24:01.916Z,82.43
2023-01-26T18:26:38.612Z,82.66
2023-01-26T18:29:07.880Z,82.66
2023-01-26T18:31:41.195Z,82.24
2023-01-26T18:34:12.802Z,82.31
2023-01-26T18:36:41.796Z,82.42
2023-01-26T18:39:14.008Z,82.67
2023-01-26T18:41:43.886Z,82.66
2023-01-26T18:44:13.472Z,82.49
2023-01-26T18:46:42.807Z,82.36
2023-01-26T18:49:11.977Z,82.65
2023-01-26T18:51:42.847Z,82.57
2023-01-26T18:54:12.324Z,82.72
2023-01-26T18:56:41.702Z,82.43
2023-01-26T18:59:11.569Z,82.39
2023-01-26T19:01:41.297Z,82.36
2023-01-26T19:04:11.201Z,82.46
2023-01-26T19:06:40.325Z,82.55
2023-01-26T19:09:09.990Z,82.38
2023-01-26T19:11:40.035Z,82.68
2023-01-26T19:14:09.297Z,82.67
2023-01-26T19:16:38.628Z,82.68
2023-01-26T19:19:07.612Z,82.44
2023-01-26T19:21:36.508Z,82.39
2023-01-26T19:24:08.613Z,82.67
2023-01-26T19:26:37.456Z,82.35
2023-01-26T19:29:06.839Z,82.46
2023-01-26T19:31:36.562Z,82.58
2023-01-26T19:34:07.879Z,82.63
2023-01-26T19:36:37.518Z,82.52
2023-01-26T19:39:07.534Z,82.35
2023-01-26T19:41:36.539Z,82.74
2023-01-26T19:44:06.122Z,82.55
2023-01-26T19:46:34.994Z,82.25
2023-01-26T19:49:04.016Z,82.19
2023-01-26T19:51:33.689Z,82.52
2023-01-26T19:54:02.586Z,82.80
2023-01-26T19:56:35.810Z,82.58
2023-01-26T19:59:07.324Z,82.53
2023-01-26T20:01:37.956Z,82.85
2023-01-26T20:04:10.023Z,82.70
2023-01-26T20:06:39.327Z,82.41
2023-01-26T20:09:09.374Z,82.31
2023-01-26T20:11:38.276Z,82.56
2023-01-26T20:14:11.612Z,82.48
2023-01-26T20:16:40.798Z,82.76
2023-01-26T20:19:11.620Z,82.66
2023-01-26T20:21:41.094Z,82.72
2023-01-26T20:24:19.494Z,82.84
2023-01-26T20:26:48.832Z,82.32
2023-01-26T20:29:20.731Z,82.98
2023-01-26T20:31:50.508Z,82.53
2023-01-26T20:34:22.506Z,82.66
2023-01-26T20:36:52.622Z,82.97
2023-01-26T20:39:25.744Z,82.67
2023-01-26T20:41:55.855Z,82.65
2023-01-26T20:44:25.056Z,82.93
2023-01-26T20:46:54.083Z,82.86
2023-01-26T20:49:23.091Z,82.59
2023-01-26T20:51:52.048Z,82.94
2023-01-26T20:54:21.020Z,82.79
2023-01-26T20:56:52.036Z,82.65
2023-01-26T20:59:22.705Z,82.66
2023-01-26T21:01:52.693Z,82.94
2023-01-26T21:04:22.130Z,82.89
2023-01-26T21:06:51.114Z,82.76
2023-01-26T21:09:21.719Z,82.70
2023-01-26T21:11:50.710Z,83.05
2023-01-26T21:14:19.734Z,82.61
2023-01-26T21:16:48.836Z,82.69
2023-01-26T21:19:17.781Z,82.56
2023-01-26T21:21:46.742Z,83.08
2023-01-26T21:24:15.766Z,82.77
2023-01-26T21:26:45.119Z,82.75
2023-01-26T21:29:16.661Z,82.50
2023-01-26T21:31:49.906Z,82.71
2023-01-26T21:34:19.019Z,82.78
2023-01-26T21:36:48.066Z,82.80
2023-01-26T21:39:17.317Z,82.80
2023-01-26T21:41:59.601Z,82.81
2023-01-26T21:44:33.858Z,82.64
2023-01-26T21:47:05.032Z,82.62
2023-01-26T21:49:34.018Z,82.82
2023-01-26T21:52:21.269Z,82.70
2023-01-26T21:54:50.186Z,82.77
2023-01-26T21:57:37.640Z,82.80
2023-01-26T22:00:07.554Z,82.68
2023-01-26T22:02:36.780Z,82.88
2023-01-26T22:05:06.183Z,82.98
2023-01-26T22:07:35.479Z,82.82
2023-01-26T22:10:06.654Z,82.82
2023-01-26T22:12:36.311Z,82.55
2023-01-26T22:15:06.255Z,83.05
2023-01-26T22:17:35.262Z,82.82
2023-01-26T22:20:05.870Z,82.76
2023-01-26T22:22:35.359Z,82.92
2023-01-26T22:25:04.179Z,82.94
2023-01-26T22:27:33.064Z,82.76
2023-01-26T22:30:02.139Z,82.93
2023-01-26T22:32:32.586Z,83.14
2023-01-26T22:35:01.560Z,83.09
2023-01-26T22:37:31.306Z,83.19
2023-01-26T22:40:00.356Z,83.19
2023-01-26T22:42:29.276Z,83.03
2023-01-26T22:44:58.785Z,83.12
2023-01-26T22:47:27.518Z,82.79
2023-01-26T22:49:56.347Z,83.09
2023-01-26T22:52:25.295Z,82.97
2023-01-26T22:54:54.487Z,82.96
2023-01-26T22:57:23.375Z,83.31
2023-01-26T22:59:52.447Z,82.83
2023-01-26T23:02:22.340Z,83.15
2023-01-26T23:04:51.618Z,83.10
2023-01-26T23:07:20.380Z,83.00
2023-01-26T23:09:49.289Z,83.16
2023-01-26T23:12:18.151Z,82.89
2023-01-26T23:14:47.073Z,83.17
2023-01-26T23:17:16.035Z,82.99
2023-01-26T23:19:44.948Z,82.96
2023-01-26T23:22:13.861Z,83.10
2023-01-26T23:25:02.602Z,83.26
2023-01-26T23:27:32.203Z,83.46
2023-01-26T23:30:03.053Z,83.23
2023-01-26T23:32:38.556Z,83.21
2023-01-26T23:35:07.758Z,83.20
2023-01-26T23:37:36.667Z,83.02
2023-01-26T23:40:05.965Z,82.97
2023-01-26T23:42:45.270Z,83.38
2023-01-26T23:45:23.853Z,83.40
2023-01-26T23:47:52.623Z,83.37
2023-01-26T23:50:21.412Z,83.47
2023-01-26T23:52:50.243Z,83.05
2023-01-26T23:55:19.234Z,83.63
2023-01-26T23:57:48.124Z,83.28
